Time;durP1;ratioP1;P1;durP2;ratioP2;P2;SDS_P1;SDS_P2;PMS_P1;PMS_P2;Temp;Humidity;BMP_temperature;BMP_pressure;BME280_temperature;BME280_humidity;BME280_pressure;Samples;Min_cycle;Max_cycle;Signal;HPM_P1;HPM_P2
2021/10/17 00:01:42;;;;;;;2.87;2.67;;;;;;;9.21;57.48;100400.38;4233319;33;35067;-82
2021/10/17 00:39:29;;;;;;;;;;;;;;;;;;;;;
2021/10/17 00:43:11;;;;;;;3.12;2.40;;;;;;;8.78;58.61;100408.19;4244222;33;36459;-80
2021/10/17 00:46:51;;;;;;;1.98;1.87;;;;;;;8.72;58.99;100405.19;4270117;33;33764;-80
2021/10/17 01:09:45;;;;;;;4.03;3.67;;;;;;;8.44;59.03;100402.94;4189614;34;32660;-80
2021/10/17 01:38:56;;;;;;;5.35;3.37;;;;;;;8.14;58.55;100402.56;4201973;34;33832;-80
2021/10/17 01:48:32;;;;;;;2.72;2.35;;;;;;;8.18;57.82;100400.50;4189857;34;34065;-80
2021/10/17 02:42:14;;;;;;;5.53;4.05;;;;;;;7.36;60.88;100400.41;4172661;34;36069;-80
2021/10/17 03:24:24;;;;;;;8.05;3.08;;;;;;;6.94;62.56;100426.41;4228943;33;34449;-81
2021/10/17 04:05:25;;;;;;;4.65;4.12;;;;;;;6.75;59.91;100425.97;4282956;33;32838;-80
2021/10/17 04:32:43;;;;;;;2.72;2.53;;;;;;;6.41;61.07;100439.78;4393005;32;34075;-79
2021/10/17 05:16:24;;;;;;;6.05;3.20;;;;;;;6.04;62.66;100465.16;4269457;33;33337;-79
2021/10/17 06:16:35;;;;;;;5.45;4.95;;;;;;;6.67;63.48;100476.75;4286872;33;35110;-81
2021/10/17 06:27:04;;;;;;;4.28;3.30;;;;;;;7.23;62.83;100481.66;4273369;33;35223;-78
2021/10/17 07:50:16;;;;;;;15.07;6.18;;;;;;;11.45;57.86;100509.06;4305909;33;33092;-79
2021/10/17 08:08:00;;;;;;;7.22;4.85;;;;;;;11.28;54.34;100507.00;4381112;32;33273;-80
2021/10/17 08:10:59;;;;;;;3.62;3.33;;;;;;;11.75;52.65;100506.41;4329686;33;32707;-80
2021/10/17 08:25:30;;;;;;;6.45;4.80;;;;;;;12.50;50.84;100507.59;4314995;33;33130;-81
2021/10/17 08:28:28;;;;;;;2.72;2.53;;;;;;;13.04;48.60;100499.03;4292611;33;33024;-80
2021/10/17 08:32:09;;;;;;;3.83;3.22;;;;;;;12.52;47.30;100513.62;4311948;33;34740;-85
2021/10/17 08:39:58;;;;;;;12.55;3.35;;;;;;;12.41;47.49;100507.59;4320480;33;33717;-79
2021/10/17 08:43:37;;;;;;;7.70;4.12;;;;;;;12.27;48.11;100508.00;4320226;33;33463;-82
2021/10/17 08:46:51;;;;;;;4.97;4.57;;;;;;;12.66;47.18;100504.38;4256495;33;34182;-82
2021/10/17 08:53:34;;;;;;;3.40;3.10;;;;;;;12.86;47.16;100498.88;4260181;33;32211;-83
2021/10/17 09:08:58;;;;;;;12.02;4.43;;;;;;;13.97;43.24;100498.03;4284808;33;33116;-82
2021/10/17 09:34:15;;;;;;;5.07;4.40;;;;;;;14.56;43.21;100499.22;4393110;32;33446;-80
2021/10/17 09:38:15;;;;;;;9.77;5.28;;;;;;;13.75;44.30;100501.94;4341150;32;33670;-81
2021/10/17 09:41:42;;;;;;;4.35;3.55;;;;;;;13.41;44.37;100502.63;4330573;32;33609;-83
2021/10/17 10:04:43;;;;;;;4.97;4.47;;;;;;;16.21;39.85;100487.25;4310252;33;36042;-84
2021/10/17 10:44:10;;;;;;;3.00;2.80;;;;;;;15.84;39.58;100447.37;4344567;32;35402;-82
2021/10/17 10:55:57;;;;;;;13.02;4.18;;;;;;;17.51;37.39;100437.78;4256197;33;34106;-85
2021/10/17 11:04:26;;;;;;;4.15;3.08;;;;;;;17.36;36.84;100426.03;4327130;33;35143;-82
2021/10/17 11:08:12;;;;;;;3.17;2.92;;;;;;;17.65;37.63;100437.03;4319819;33;33595;-82
2021/10/17 11:19:31;;;;;;;;;;;;;;;;;;;;;
2021/10/17 11:22:42;;;;;;;4.12;3.45;;;;;;;17.27;38.28;100421.66;4251449;33;32999;-82
2021/10/17 11:29:43;;;;;;;3.28;2.97;;;;;;;18.30;36.38;100409.66;4216331;33;34269;-82
2021/10/17 11:37:21;;;;;;;4.00;2.58;;;;;;;19.15;34.32;100401.16;4258335;33;35035;-82
2021/10/17 11:47:31;;;;;;;3.90;3.30;;;;;;;18.84;35.16;100391.53;4293140;33;33908;-82
2021/10/17 11:50:42;;;;;;;4.47;3.47;;;;;;;18.79;34.68;100392.06;4318373;32;30449;-84
2021/10/17 11:55:19;;;;;;;4.35;3.70;;;;;;;19.20;34.75;100385.31;4378378;32;34695;-81
2021/10/17 12:01:47;;;;;;;4.30;3.65;;;;;;;18.19;37.11;100372.31;4389098;32;34964;-82
2021/10/17 12:05:36;;;;;;;3.17;2.53;;;;;;;18.77;34.45;100380.63;4356678;32;33048;-82
2021/10/17 12:53:00;;;;;;;2.22;1.95;;;;;;;23.68;25.33;100333.75;5362805;26;883689;-88
2021/10/17 12:55:55;;;;;;;2.55;1.87;;;;;;;24.27;24.32;100334.34;5312015;26;480776;-82
2021/10/17 12:58:28;;;;;;;4.50;2.95;;;;;;;24.59;23.81;100331.41;5341989;26;35018;-82
2021/10/17 13:01:05;;;;;;;5.55;4.10;;;;;;;24.92;23.69;100323.78;5341448;26;32073;-83
2021/10/17 13:04:11;;;;;;;3.58;2.78;;;;;;;25.51;22.94;100325.91;5361771;26;34978;-82
2021/10/17 13:07:02;;;;;;;4.05;3.25;;;;;;;25.58;23.18;100326.69;5361762;26;35100;-81
2021/10/17 13:09:55;;;;;;;6.93;3.33;;;;;;;25.75;22.97;100327.72;5360770;26;33814;-81
2021/10/17 13:12:38;;;;;;;4.03;2.90;;;;;;;26.17;23.08;100326.75;5323759;26;33919;-81
2021/10/17 13:15:31;;;;;;;2.42;2.22;;;;;;;25.37;22.26;100319.78;5361290;26;34559;-83
2021/10/17 13:18:04;;;;;;;2.42;1.95;;;;;;;26.36;22.51;100320.16;5341737;26;34596;-81
2021/10/17 13:20:42;;;;;;;2.28;2.08;;;;;;;26.20;21.47;100318.94;5343199;26;34674;-82
2021/10/17 13:23:17;;;;;;;2.37;2.17;;;;;;;25.99;22.40;100314.00;5339489;26;33362;-82
2021/10/17 13:26:04;;;;;;;3.40;1.58;;;;;;;26.23;22.58;100323.91;5342367;26;34423;-83
2021/10/17 13:28:36;;;;;;;6.95;2.33;;;;;;;26.08;21.23;100318.06;5316167;26;34799;-83
2021/10/17 13:31:18;;;;;;;1.87;1.52;;;;;;;25.73;23.06;100325.22;5297443;26;33014;-82
2021/10/17 13:54:23;;;;;;;7.45;1.70;;;;;;;22.19;27.56;100317.63;4449050;32;214684;-83
2021/10/17 13:57:12;;;;;;;1.58;1.48;;;;;;;22.47;27.05;100321.84;4432743;32;33865;-83
2021/10/17 14:00:00;;;;;;;2.55;2.35;;;;;;;23.27;25.32;100321.56;4433971;32;34407;-83
2021/10/17 14:02:48;;;;;;;3.03;1.95;;;;;;;24.02;24.29;100314.41;4442481;32;34370;-83
2021/10/17 14:05:29;;;;;;;2.10;1.42;;;;;;;24.47;23.65;100311.34;4441551;32;34108;-82
2021/10/17 14:08:18;;;;;;;1.83;1.02;;;;;;;24.61;22.86;100312.97;4455162;32;33634;-82
2021/10/17 14:10:50;;;;;;;1.58;1.48;;;;;;;24.08;24.97;100308.91;4440994;32;34554;-82
2021/10/17 14:13:29;;;;;;;2.17;1.98;;;;;;;24.28;24.80;100306.91;4441323;32;35359;-82
2021/10/17 14:16:00;;;;;;;1.52;1.20;;;;;;;24.46;23.43;100304.25;4440655;32;34267;-83
2021/10/17 14:18:49;;;;;;;1.33;1.20;;;;;;;24.57;24.14;100303.56;4430556;32;33557;-84
2021/10/17 14:21:19;;;;;;;7.43;1.50;;;;;;;24.76;22.27;100296.31;4428435;32;33681;-84
2021/10/17 14:23:48;;;;;;;2.20;2.00;;;;;;;24.18;24.35;100300.31;4455911;32;35412;-82
2021/10/17 14:26:25;;;;;;;4.45;1.87;;;;;;;23.78;24.46;100310.53;4441958;32;34492;-86
2021/10/17 14:29:13;;;;;;;1.37;1.33;;;;;;;24.28;25.22;100304.19;4432785;32;33993;-83
2021/10/17 14:31:50;;;;;;;2.42;2.20;;;;;;;24.11;24.68;100292.16;4417022;32;32731;-84
2021/10/17 14:34:46;;;;;;;1.92;1.67;;;;;;;24.84;23.72;100296.03;4444656;32;34116;-84
2021/10/17 14:37:55;;;;;;;1.65;1.45;;;;;;;24.97;22.77;100291.28;4437272;32;34587;-89
2021/10/17 14:40:47;;;;;;;1.33;1.33;;;;;;;24.80;22.23;100292.91;4440983;32;32111;-83
2021/10/17 14:43:35;;;;;;;2.20;1.85;;;;;;;24.26;23.19;100297.31;4455152;32;33495;-84
2021/10/17 14:46:23;;;;;;;9.52;1.77;;;;;;;24.00;24.56;100292.88;4432453;32;35604;-84
2021/10/17 14:49:11;;;;;;;2.25;1.40;;;;;;;24.02;24.43;100296.22;4418622;32;33168;-83
2021/10/17 14:51:59;;;;;;;1.58;1.48;;;;;;;24.12;24.89;100290.28;4443310;32;33435;-84
2021/10/17 14:54:55;;;;;;;1.50;1.40;;;;;;;24.11;24.21;100288.63;4435172;32;34058;-84
2021/10/17 14:57:43;;;;;;;2.62;1.67;;;;;;;24.17;24.30;100291.28;4430708;32;34032;-84
2021/10/17 15:00:24;;;;;;;1.05;0.93;;;;;;;24.06;24.00;100293.88;4430369;32;33884;-83
2021/10/17 15:03:11;;;;;;;2.95;1.50;;;;;;;23.81;24.38;100288.34;4443507;32;32653;-83
2021/10/17 15:05:59;;;;;;;4.57;1.80;;;;;;;23.49;25.32;100284.97;4432687;32;33315;-83
2021/10/17 15:08:46;;;;;;;;;;;;;;;23.60;25.31;100287.00;4433433;32;33834;-83
2021/10/17 15:11:36;;;;;;;2.50;1.95;;;;;;;23.61;24.78;100294.09;4423522;32;34672;-83
2021/10/17 15:14:28;;;;;;;3.62;2.33;;;;;;;23.49;24.96;100291.22;4409823;32;32911;-83
2021/10/17 15:17:16;;;;;;;1.98;1.87;;;;;;;23.39;25.52;100285.41;4444604;32;34357;-83
2021/10/17 15:20:01;;;;;;;2.97;2.17;;;;;;;23.34;25.32;100285.22;4430505;32;35793;-83
2021/10/17 15:22:45;;;;;;;1.73;1.62;;;;;;;23.12;26.81;100289.22;4408243;32;34371;-83
2021/10/17 15:25:35;;;;;;;3.90;2.47;;;;;;;22.97;27.77;100293.22;4430000;32;31921;-83
2021/10/17 15:28:44;;;;;;;3.62;2.20;;;;;;;22.76;28.05;100297.00;4444475;32;34422;-82
2021/10/17 15:31:16;;;;;;;1.33;1.25;;;;;;;22.36;29.30;100308.88;4405368;32;35163;-83
2021/10/17 15:33:52;;;;;;;4.45;2.83;;;;;;;22.00;29.76;100305.69;4419506;32;35059;-83
2021/10/17 15:36:41;;;;;;;1.55;1.45;;;;;;;21.79;30.72;100303.12;4432744;32;33609;-83
2021/10/17 15:39:49;;;;;;;1.05;1.05;;;;;;;21.45;31.27;100307.75;4421030;32;34341;-83
2021/10/17 15:42:17;;;;;;;;;;;;;;;21.01;31.86;100310.00;4417963;32;32987;-83
2021/10/17 15:45:09;;;;;;;1.70;1.58;;;;;;;20.82;32.71;100314.22;4408761;32;34737;-82
2021/10/17 15:47:46;;;;;;;5.87;2.00;;;;;;;20.61;33.04;100316.13;4431473;32;33401;-82
2021/10/17 15:50:35;;;;;;;3.00;1.98;;;;;;;20.22;33.39;100317.66;4419715;32;33059;-83
2021/10/17 15:53:26;;;;;;;2.15;2.05;;;;;;;19.87;34.10;100321.19;4408471;32;34230;-83
2021/10/17 15:56:22;;;;;;;3.25;2.95;;;;;;;19.41;34.84;100320.62;4402432;32;34372;-82
2021/10/17 15:58:52;;;;;;;3.40;3.12;;;;;;;19.07;36.16;100323.03;4412542;32;33338;-82
2021/10/17 16:01:40;;;;;;;5.87;3.65;;;;;;;18.91;36.10;100325.94;4402112;32;32386;-82
2021/10/17 16:04:49;;;;;;;4.20;3.20;;;;;;;18.59;36.79;100331.63;4404436;32;35310;-82
2021/10/17 16:07:17;;;;;;;6.12;4.87;;;;;;;18.09;37.62;100339.41;4399751;32;33860;-82
2021/10/17 16:10:03;;;;;;;14.40;5.15;;;;;;;17.96;38.00;100343.72;4401686;32;34110;-82
2021/10/17 16:12:48;;;;;;;5.30;4.53;;;;;;;17.67;38.20;100352.44;4412537;32;33287;-82
2021/10/17 16:15:37;;;;;;;4.00;3.17;;;;;;;17.40;38.81;100338.63;4401105;32;35708;-82
2021/10/17 16:18:28;;;;;;;2.58;2.37;;;;;;;17.16;38.94;100352.09;4392172;32;34290;-82
2021/10/17 16:21:08;;;;;;;5.47;4.22;;;;;;;16.84;39.53;100348.66;4412215;32;33518;-82
2021/10/17 16:24:02;;;;;;;11.43;4.87;;;;;;;16.56;40.66;100358.09;4402610;32;34264;-82
2021/10/17 16:26:51;;;;;;;6.45;3.72;;;;;;;16.40;41.08;100352.72;4401847;32;34618;-82
2021/10/17 16:29:40;;;;;;;5.03;4.18;;;;;;;16.25;40.66;100351.69;4401626;32;34348;-82
2021/10/17 16:32:34;;;;;;;4.80;3.42;;;;;;;15.98;41.43;100360.03;4412171;32;33386;-82
2021/10/17 16:35:22;;;;;;;3.15;2.90;;;;;;;15.79;41.92;100353.09;4387775;32;33630;-82
2021/10/17 16:38:11;;;;;;;3.28;2.92;;;;;;;15.65;42.54;100352.91;4401623;32;33978;-82
2021/10/17 16:40:57;;;;;;;9.57;4.40;;;;;;;15.46;42.96;100361.22;4401785;32;34062;-82
2021/10/17 16:43:54;;;;;;;3.53;3.25;;;;;;;15.26;43.42;100359.75;4403033;32;33187;-82
2021/10/17 16:46:46;;;;;;;4.62;4.22;;;;;;;15.11;44.00;100359.50;4411255;32;33633;-82
2021/10/17 16:49:36;;;;;;;3.97;3.67;;;;;;;14.92;44.38;100362.41;4412930;32;35471;-82
2021/10/17 16:52:13;;;;;;;3.20;2.55;;;;;;;14.78;44.51;100368.38;4413484;32;34615;-81
2021/10/17 16:55:01;;;;;;;3.20;2.62;;;;;;;14.67;44.48;100370.44;4432566;32;32690;-82
2021/10/17 16:57:41;;;;;;;9.10;2.33;;;;;;;14.61;44.56;100373.75;4417076;32;33609;-81
2021/10/17 17:00:16;;;;;;;4.62;4.20;;;;;;;14.38;44.81;100373.38;4443850;32;34635;-82
2021/10/17 17:03:25;;;;;;;7.12;3.03;;;;;;;14.32;45.09;100370.50;4434725;32;35373;-82
2021/10/17 17:06:16;;;;;;;2.70;2.50;;;;;;;14.28;45.02;100374.47;4408068;32;32663;-82
2021/10/17 17:09:08;;;;;;;5.93;3.25;;;;;;;14.14;45.15;100377.66;4415258;32;33244;-81
2021/10/17 17:11:46;;;;;;;3.20;2.92;;;;;;;13.88;45.82;100378.56;4406452;32;33486;-82
2021/10/17 17:14:15;;;;;;;3.75;3.15;;;;;;;13.67;46.35;100391.38;4417150;32;33858;-82
2021/10/17 17:17:05;;;;;;;3.20;3.00;;;;;;;13.47;46.80;100385.25;4430081;32;34565;-82
2021/10/17 17:19:53;;;;;;;3.87;3.30;;;;;;;13.34;46.96;100394.62;4431626;32;32697;-81
2021/10/17 17:22:23;;;;;;;4.62;3.70;;;;;;;12.99;48.46;100392.63;4443673;32;33514;-81
2021/10/17 17:25:15;;;;;;;2.65;2.45;;;;;;;12.89;48.04;100389.13;4420238;32;34918;-81
2021/10/17 17:27:53;;;;;;;2.37;2.17;;;;;;;12.81;48.55;100386.31;4443471;32;33244;-82
2021/10/17 17:31:05;;;;;;;6.95;2.72;;;;;;;12.79;48.90;100395.47;4441596;32;35143;-82
2021/10/17 17:33:56;;;;;;;3.65;2.25;;;;;;;12.69;48.82;100399.97;4443811;32;34069;-82
2021/10/17 17:36:45;;;;;;;6.12;2.08;;;;;;;12.59;49.04;100393.81;4409992;32;33163;-82
2021/10/17 17:39:34;;;;;;;5.93;3.40;;;;;;;12.58;48.54;100394.78;4418608;32;32775;-82
2021/10/17 17:42:23;;;;;;;4.87;2.53;;;;;;;12.38;49.23;100401.97;4432285;32;35758;-82
2021/10/17 17:44:55;;;;;;;3.37;3.17;;;;;;;12.28;49.73;100403.78;4442641;32;34507;-82
2021/10/17 17:47:43;;;;;;;4.45;2.67;;;;;;;12.21;50.00;100407.16;4421748;32;34955;-82
2021/10/17 17:50:52;;;;;;;2.83;2.62;;;;;;;12.02;50.10;100412.50;4435489;32;33340;-82
2021/10/17 17:53:41;;;;;;;4.03;3.58;;;;;;;12.02;50.21;100407.97;4417669;32;33219;-82
2021/10/17 17:56:17;;;;;;;1.85;1.75;;;;;;;12.06;49.67;100411.22;4427831;32;35468;-82
2021/10/17 17:59:11;;;;;;;3.22;1.90;;;;;;;11.93;50.11;100416.81;4415964;32;34813;-82
2021/10/17 18:01:54;;;;;;;8.30;3.25;;;;;;;11.86;49.97;100423.69;4427999;32;33552;-82
2021/10/17 18:04:44;;;;;;;4.35;3.28;;;;;;;11.70;50.38;100415.38;4425959;32;34056;-82
2021/10/17 18:07:32;;;;;;;5.35;4.85;;;;;;;11.53;50.97;100425.81;4416266;32;34893;-82
2021/10/17 18:10:21;;;;;;;4.80;4.40;;;;;;;11.38;51.36;100420.00;4427425;32;34174;-82
2021/10/17 18:13:10;;;;;;;14.05;5.37;;;;;;;11.32;51.34;100415.22;4427812;32;33621;-82
2021/10/17 18:16:00;;;;;;;3.22;2.95;;;;;;;11.22;51.97;100423.28;4427331;32;35515;-82
2021/10/17 18:18:48;;;;;;;2.40;2.20;;;;;;;11.13;51.93;100422.25;4406198;32;34508;-81
2021/10/17 18:24:11;;;;;;;5.40;2.92;;;;;;;10.72;52.97;100426.78;4394990;32;34619;-81
2021/10/17 18:26:42;;;;;;;3.47;2.92;;;;;;;10.72;53.64;100437.41;4383608;32;35052;-82
2021/10/17 18:29:11;;;;;;;3.35;3.15;;;;;;;10.82;52.99;100441.84;4382767;32;36624;-81
2021/10/17 18:31:45;;;;;;;3.53;3.22;;;;;;;10.67;53.29;100447.63;4383604;32;35168;-81
2021/10/17 18:34:19;;;;;;;8.95;3.85;;;;;;;10.52;53.91;100446.22;4386789;32;33333;-83
2021/10/17 18:36:49;;;;;;;6.80;3.78;;;;;;;10.55;54.26;100449.47;4393529;32;33050;-82
2021/10/17 18:39:37;;;;;;;;;;;;;;;10.55;53.92;100452.16;4371645;32;34810;-82
2021/10/17 18:42:10;;;;;;;5.95;3.92;;;;;;;10.36;54.63;100444.00;4385579;32;34217;-82
2021/10/17 18:44:51;;;;;;;6.32;3.53;;;;;;;10.50;53.94;100441.06;4379102;32;33143;-82
2021/10/17 18:47:35;;;;;;;6.45;4.10;;;;;;;10.53;53.62;100447.91;4392095;32;33284;-83
2021/10/17 18:50:23;;;;;;;3.55;3.03;;;;;;;10.27;54.62;100454.53;4387381;32;35697;-82
2021/10/17 18:53:12;;;;;;;2.78;2.58;;;;;;;10.43;54.19;100449.66;4391533;32;34483;-81
2021/10/17 18:55:43;;;;;;;3.75;3.45;;;;;;;10.47;53.47;100456.44;4384324;32;32777;-83
2021/10/17 18:58:26;;;;;;;2.15;1.95;;;;;;;10.30;54.15;100457.81;4387406;32;33619;-83
2021/10/17 19:01:02;;;;;;;4.57;4.15;;;;;;;10.39;53.49;100453.56;4399765;32;34878;-82
2021/10/17 19:03:51;;;;;;;4.07;3.78;;;;;;;10.10;54.09;100463.09;4387033;32;35037;-83
2021/10/17 19:06:38;;;;;;;7.75;4.53;;;;;;;10.19;54.20;100465.81;4386753;32;31782;-82
2021/10/17 19:09:12;;;;;;;3.75;3.42;;;;;;;10.16;53.85;100462.56;4380163;32;33835;-84
2021/10/17 19:11:56;;;;;;;5.10;3.95;;;;;;;10.11;54.19;100468.25;4398746;32;35793;-83
2021/10/17 19:14:29;;;;;;;6.87;3.40;;;;;;;9.97;54.50;100475.62;4385410;32;34462;-82
2021/10/17 19:17:05;;;;;;;5.10;3.65;;;;;;;9.99;54.68;100474.53;4394972;32;33643;-82
2021/10/17 19:19:53;;;;;;;5.43;5.03;;;;;;;9.99;54.33;100476.34;4386453;32;33984;-82
2021/10/17 19:22:24;;;;;;;4.50;4.10;;;;;;;9.92;54.32;100477.84;4369470;32;33823;-82
2021/10/17 19:25:09;;;;;;;10.35;5.12;;;;;;;9.90;54.46;100479.78;4359162;32;33378;-82
2021/10/17 19:27:39;;;;;;;4.65;4.10;;;;;;;9.75;54.83;100492.44;4356732;32;32423;-82
2021/10/17 19:30:27;;;;;;;4.15;3.75;;;;;;;9.79;54.90;100491.25;4370686;32;34475;-82
2021/10/17 19:32:56;;;;;;;5.43;4.45;;;;;;;9.79;54.71;100485.09;4380612;32;34567;-82
2021/10/17 19:35:30;;;;;;;5.95;3.97;;;;;;;9.75;54.79;100488.97;4368990;32;34491;-82
2021/10/17 19:38:03;;;;;;;6.30;5.53;;;;;;;9.71;54.99;100490.16;4369532;32;32667;-83
2021/10/17 19:40:45;;;;;;;3.75;3.35;;;;;;;9.68;55.84;100485.97;4368746;32;34081;-82
2021/10/17 19:43:25;;;;;;;3.33;2.70;;;;;;;9.69;55.40;100497.41;4359642;32;34711;-83
2021/10/17 19:45:59;;;;;;;6.68;4.25;;;;;;;9.62;55.67;100493.56;4361271;32;34569;-83
2021/10/17 19:48:30;;;;;;;3.83;3.50;;;;;;;9.57;55.68;100498.41;4379048;32;33425;-82
2021/10/17 19:51:05;;;;;;;6.43;3.78;;;;;;;9.61;55.40;100489.19;4378115;32;33946;-82
2021/10/17 19:53:53;;;;;;;3.42;2.47;;;;;;;9.54;55.51;100496.00;4381417;32;36230;-83
2021/10/17 19:56:41;;;;;;;4.12;2.92;;;;;;;9.51;55.93;100496.22;4370988;32;34283;-83
2021/10/17 19:59:09;;;;;;;6.68;3.20;;;;;;;9.47;56.14;100495.59;4353569;32;31946;-84
2021/10/17 20:01:46;;;;;;;3.25;2.45;;;;;;;9.45;56.57;100494.06;4388098;32;33830;-82
2021/10/17 20:04:17;;;;;;;5.10;2.97;;;;;;;9.45;56.06;100497.53;4365129;32;34468;-83
2021/10/17 20:06:51;;;;;;;6.53;3.40;;;;;;;9.52;55.81;100490.78;4370598;32;32832;-83
2021/10/17 20:09:22;;;;;;;2.78;2.58;;;;;;;9.49;56.05;100488.37;4370694;32;33527;-83
2021/10/17 20:11:51;;;;;;;3.53;2.65;;;;;;;9.50;55.81;100497.19;4375391;32;33420;-84
2021/10/17 20:14:38;;;;;;;2.45;2.33;;;;;;;9.54;55.63;100491.50;4378643;32;34246;-83
2021/10/17 20:17:27;;;;;;;2.83;2.20;;;;;;;9.46;55.63;100490.44;4370263;32;33615;-83
2021/10/17 20:19:57;;;;;;;2.95;2.55;;;;;;;9.51;55.68;100496.22;4386057;32;33911;-83
2021/10/17 20:22:42;;;;;;;4.07;3.05;;;;;;;9.47;55.37;100490.28;4384112;32;34427;-82
2021/10/17 20:25:17;;;;;;;4.00;2.55;;;;;;;9.43;55.79;100495.97;4379890;32;34559;-83
2021/10/17 20:28:06;;;;;;;4.95;3.50;;;;;;;9.52;55.01;100489.94;4385338;32;33766;-83
2021/10/17 20:31:24;;;;;;;9.23;2.40;;;;;;;9.34;55.23;100489.56;4389533;32;34103;-84
2021/10/17 20:34:12;;;;;;;3.25;3.00;;;;;;;9.19;56.08;100493.41;4373234;32;34095;-84
2021/10/17 20:36:52;;;;;;;6.07;4.20;;;;;;;8.71;57.22;100497.16;4397212;32;34967;-84
2021/10/17 20:39:25;;;;;;;7.97;3.75;;;;;;;9.08;56.55;100498.72;4377240;32;32737;-84
2021/10/17 20:42:04;;;;;;;;;;;;;;;9.22;55.78;100501.16;4383862;32;33478;-83
2021/10/17 20:44:55;;;;;;;3.58;3.10;;;;;;;9.21;55.69;100499.47;4383393;32;32977;-84
2021/10/17 20:47:36;;;;;;;3.83;3.45;;;;;;;9.07;56.44;100499.66;4384547;32;34768;-84
2021/10/17 20:50:12;;;;;;;6.50;4.57;;;;;;;9.02;56.38;100493.88;4379163;32;32975;-83
2021/10/17 20:52:58;;;;;;;3.85;2.95;;;;;;;9.00;56.01;100501.09;4391399;32;34043;-84
2021/10/17 20:55:47;;;;;;;4.68;3.42;;;;;;;8.90;56.48;100502.75;4383615;32;33204;-85
2021/10/17 20:58:23;;;;;;;4.00;3.50;;;;;;;8.86;56.41;100503.97;4383447;32;34822;-84
2021/10/17 21:00:55;;;;;;;5.45;3.62;;;;;;;8.74;56.69;100502.25;4383176;32;33853;-82
2021/10/17 21:03:49;;;;;;;3.22;3.03;;;;;;;8.63;57.81;100499.53;4387091;32;33045;-85
2021/10/17 21:06:27;;;;;;;3.50;3.20;;;;;;;8.61;58.23;100492.69;4385312;32;33176;-85
2021/10/17 21:09:04;;;;;;;2.97;2.78;;;;;;;8.70;58.01;100499.94;4385109;32;35343;-81
2021/10/17 21:11:34;;;;;;;4.47;2.70;;;;;;;8.72;57.93;100492.72;4382894;32;33880;-81
2021/10/17 21:14:05;;;;;;;2.15;2.00;;;;;;;8.74;57.68;100494.31;4383641;32;32301;-81
2021/10/17 21:16:53;;;;;;;5.10;3.33;;;;;;;8.81;57.15;100492.03;4388361;32;34957;-81
2021/10/17 21:19:22;;;;;;;2.90;2.40;;;;;;;8.97;55.94;100498.69;4383931;32;35088;-81
2021/10/17 21:21:53;;;;;;;7.68;3.15;;;;;;;8.87;56.10;100497.69;4384604;32;34470;-81
2021/10/17 21:24:26;;;;;;;2.17;2.08;;;;;;;8.81;56.71;100497.31;4375872;32;32518;-81
2021/10/17 21:27:02;;;;;;;4.00;3.62;;;;;;;8.73;57.31;100505.84;4395275;32;33548;-81
2021/10/17 21:29:38;;;;;;;3.20;2.92;;;;;;;8.72;56.69;100503.31;4372437;32;35316;-81
2021/10/17 21:32:10;;;;;;;4.87;2.08;;;;;;;8.60;56.57;100505.09;4384468;32;33844;-81
2021/10/17 21:34:43;;;;;;;4.32;2.15;;;;;;;8.50;57.22;100506.72;4389839;32;33194;-81
2021/10/17 21:37:29;;;;;;;3.97;2.15;;;;;;;8.48;57.48;100510.44;4385739;32;34369;-81
2021/10/17 21:40:02;;;;;;;3.25;1.62;;;;;;;8.44;58.03;100509.00;4383316;32;34685;-82
2021/10/17 21:42:38;;;;;;;5.22;2.37;;;;;;;8.40;58.12;100504.03;4394403;32;34748;-81
2021/10/17 21:45:15;;;;;;;2.12;1.90;;;;;;;8.40;58.26;100499.56;4375922;32;32749;-82
2021/10/17 21:47:47;;;;;;;2.12;1.62;;;;;;;8.29;58.68;100501.34;4385849;32;34007;-81
2021/10/17 21:50:36;;;;;;;3.35;2.12;;;;;;;8.34;58.61;100499.19;4384354;32;35588;-81
2021/10/17 21:53:24;;;;;;;3.70;1.48;;;;;;;8.16;58.90;100496.06;4385320;32;34770;-81
2021/10/17 21:55:54;;;;;;;4.43;2.33;;;;;;;8.27;58.35;100497.94;4396859;32;32166;-82
2021/10/17 21:58:38;;;;;;;1.92;1.80;;;;;;;7.98;59.09;100500.03;4385312;32;33932;-82
2021/10/17 22:01:22;;;;;;;3.22;2.95;;;;;;;8.36;57.01;100500.75;4397049;32;34739;-81
2021/10/17 22:04:08;;;;;;;1.55;1.45;;;;;;;8.23;57.75;100504.44;4384789;32;34736;-82
2021/10/17 22:06:45;;;;;;;2.22;1.65;;;;;;;8.31;57.25;100508.19;4395326;32;33383;-82
2021/10/17 22:09:33;;;;;;;4.82;2.65;;;;;;;8.26;57.39;100501.53;4373088;32;33275;-81
2021/10/17 22:12:20;;;;;;;3.67;1.75;;;;;;;8.18;57.49;100502.06;4385213;32;34640;-81
2021/10/17 22:15:06;;;;;;;1.23;1.23;;;;;;;8.15;58.17;100502.31;4385896;32;34843;-81
2021/10/17 22:17:54;;;;;;;2.65;2.15;;;;;;;8.10;58.23;100504.44;4387350;32;33269;-81
2021/10/17 22:20:38;;;;;;;3.53;2.22;;;;;;;7.92;58.62;100503.12;4387626;32;34668;-81
2021/10/17 22:23:08;;;;;;;3.10;1.48;;;;;;;7.88;59.49;100508.75;4393963;32;35744;-82
2021/10/17 22:25:39;;;;;;;2.10;2.00;;;;;;;7.94;59.04;100503.84;4371031;32;33726;-81
2021/10/17 22:28:23;;;;;;;2.37;1.83;;;;;;;7.96;59.14;100504.59;4382555;32;32592;-82
2021/10/17 22:30:56;;;;;;;4.30;1.83;;;;;;;7.90;59.45;100515.63;4371068;32;33902;-82
2021/10/17 22:33:45;;;;;;;2.33;1.77;;;;;;;7.89;59.56;100507.78;4372840;32;34827;-82
2021/10/17 22:36:19;;;;;;;2.95;2.25;;;;;;;7.93;59.40;100506.62;4371066;32;34457;-81
2021/10/17 22:38:55;;;;;;;7.10;3.25;;;;;;;7.83;59.47;100514.38;4382426;32;33696;-81
2021/10/17 22:41:40;;;;;;;3.28;2.22;;;;;;;7.93;59.13;100507.47;4382898;32;33309;-81
2021/10/17 22:44:31;;;;;;;2.53;1.83;;;;;;;7.90;59.31;100512.13;4386474;32;35470;-82
2021/10/17 22:47:07;;;;;;;2.47;1.90;;;;;;;7.82;59.63;100512.69;4382930;32;33961;-82
2021/10/17 22:49:55;;;;;;;7.45;2.83;;;;;;;7.74;59.85;100508.91;4398124;32;33017;-81
2021/10/17 22:52:43;;;;;;;3.53;1.98;;;;;;;7.86;60.41;100510.66;4372855;32;34514;-81
2021/10/17 22:55:14;;;;;;;4.35;3.03;;;;;;;7.88;60.40;100508.75;4383980;32;33629;-82
2021/10/17 22:57:51;;;;;;;7.82;2.37;;;;;;;7.84;60.46;100508.13;4382562;32;34679;-82
2021/10/17 23:00:21;;;;;;;4.20;2.17;;;;;;;7.84;60.67;100509.94;4370158;32;33789;-82
2021/10/17 23:02:57;;;;;;;1.87;1.73;;;;;;;7.98;60.20;100505.34;4384142;32;33388;-81
2021/10/17 23:05:27;;;;;;;5.18;2.47;;;;;;;7.95;60.50;100512.66;4358160;32;34921;-81
2021/10/17 23:08:15;;;;;;;4.25;2.08;;;;;;;7.96;60.79;100506.41;4372694;32;34773;-82
2021/10/17 23:11:03;;;;;;;;;;;;;;;8.01;60.83;100512.22;4374207;32;33321;-82
2021/10/17 23:13:51;;;;;;;1.90;1.20;;;;;;;7.52;62.50;100514.00;4383385;32;31874;-82
2021/10/17 23:16:36;;;;;;;1.92;1.83;;;;;;;8.00;61.62;100506.06;4372559;32;34994;-83
2021/10/17 23:19:32;;;;;;;3.20;2.60;;;;;;;8.20;60.72;100507.31;4384814;32;34413;-82
2021/10/17 23:22:19;;;;;;;3.75;1.73;;;;;;;7.92;61.71;100510.25;4384927;32;34082;-82
2021/10/17 23:25:08;;;;;;;3.92;2.28;;;;;;;8.11;61.81;100516.72;4384497;32;32552;-81
2021/10/17 23:27:38;;;;;;;6.95;2.10;;;;;;;8.31;60.50;100517.97;4371826;32;34333;-81
2021/10/17 23:30:24;;;;;;;3.65;2.42;;;;;;;8.18;60.33;100514.47;4386871;32;34502;-81
2021/10/17 23:33:08;;;;;;;2.00;1.83;;;;;;;8.17;60.78;100512.78;4386565;32;32955;-82
2021/10/17 23:35:53;;;;;;;2.53;2.35;;;;;;;8.12;61.19;100517.59;4398956;32;34053;-81
2021/10/17 23:38:38;;;;;;;1.95;1.85;;;;;;;8.41;60.46;100524.28;4386518;32;35475;-82
2021/10/17 23:41:08;;;;;;;3.45;3.12;;;;;;;8.43;60.42;100519.72;4372379;32;33286;-81
2021/10/17 23:43:55;;;;;;;2.40;2.03;;;;;;;8.60;59.74;100528.13;4384126;32;31843;-83
2021/10/17 23:46:40;;;;;;;3.12;2.50;;;;;;;8.52;59.81;100527.84;4386984;32;34330;-82
2021/10/17 23:49:25;;;;;;;2.08;1.98;;;;;;;8.57;60.26;100533.62;4397038;32;34929;-81
2021/10/17 23:52:01;;;;;;;4.43;1.65;;;;;;;8.42;60.69;100531.28;4385731;32;33536;-82
2021/10/17 23:54:36;;;;;;;4.03;2.35;;;;;;;8.61;60.41;100532.47;4384479;32;32978;-82
2021/10/17 23:57:20;;;;;;;4.28;2.37;;;;;;;8.64;60.53;100534.88;4386137;32;34411;-82
